createdAt,value
2023-03-17T00:01:25.171Z,281.23
2023-03-17T00:03:51.626Z,281.25
2023-03-17T00:06:17.979Z,270.42
2023-03-17T00:08:44.233Z,268.85
2023-03-17T00:11:10.626Z,260.73
2023-03-17T00:13:36.952Z,256.65
2023-03-17T00:16:03.348Z,247.52
2023-03-17T00:18:29.709Z,254.73
2023-03-17T00:20:56.050Z,238.43
2023-03-17T00:23:22.972Z,228.35
2023-03-17T00:25:49.282Z,229.90
2023-03-17T00:28:15.695Z,227.48
2023-03-17T00:30:42.102Z,221.85
2023-03-17T00:33:08.426Z,217.60
2023-03-17T00:35:34.729Z,210.00
2023-03-17T00:38:01.300Z,212.98
2023-03-17T00:40:27.834Z,209.52
2023-03-17T00:42:54.511Z,205.70
2023-03-17T00:45:20.783Z,196.70
2023-03-17T00:47:47.150Z,199.02
2023-03-17T00:50:13.696Z,191.60
2023-03-17T00:52:40.125Z,187.75
2023-03-17T00:55:06.571Z,186.38
2023-03-17T00:57:32.959Z,174.90
2023-03-17T00:59:59.393Z,174.15
2023-03-17T01:02:25.825Z,170.98
2023-03-17T01:04:59.894Z,165.70
2023-03-17T01:07:32.079Z,163.65
2023-03-17T01:09:58.384Z,163.68
2023-03-17T01:12:24.770Z,154.80
2023-03-17T01:14:51.125Z,153.43
2023-03-17T01:17:17.859Z,147.40
2023-03-17T01:19:44.410Z,147.10
2023-03-17T01:22:10.710Z,148.35
2023-03-17T01:24:37.038Z,141.07
2023-03-17T01:27:03.318Z,140.68
2023-03-17T01:29:29.907Z,131.88
2023-03-17T01:31:56.428Z,133.80
2023-03-17T01:34:22.829Z,127.95
2023-03-17T01:36:49.242Z,127.05
2023-03-17T01:39:15.783Z,123.07
2023-03-17T01:41:42.182Z,124.40
2023-03-17T01:44:08.751Z,119.90
2023-03-17T01:46:35.150Z,114.03
2023-03-17T01:49:01.492Z,114.47
2023-03-17T01:51:27.928Z,111.55
2023-03-17T01:53:54.294Z,112.60
2023-03-17T01:56:20.831Z,101.15
2023-03-17T01:58:47.120Z,104.60
2023-03-17T02:01:13.665Z,104.28
2023-03-17T02:03:40.230Z,100.00
2023-03-17T02:06:07.000Z,98.47
2023-03-17T02:08:33.437Z,96.95
2023-03-17T02:11:00.007Z,91.85
2023-03-17T02:13:26.912Z,94.47
2023-03-17T02:15:53.309Z,91.30
2023-03-17T02:18:19.729Z,86.50
2023-03-17T02:20:46.525Z,88.53
2023-03-17T02:23:12.906Z,84.88
2023-03-17T02:25:39.272Z,81.68
2023-03-17T02:28:05.730Z,80.20
2023-03-17T02:30:32.513Z,76.05
2023-03-17T02:32:59.201Z,78.43
2023-03-17T02:35:25.547Z,75.95
2023-03-17T02:37:52.318Z,74.43
2023-03-17T02:40:19.000Z,75.43
2023-03-17T02:42:45.794Z,75.30
2023-03-17T02:45:12.318Z,70.18
2023-03-17T02:47:38.956Z,72.18
2023-03-17T02:50:05.273Z,68.22
2023-03-17T02:52:31.815Z,69.47
2023-03-17T02:54:58.126Z,65.38
2023-03-17T02:57:24.709Z,66.25
2023-03-17T02:59:51.136Z,63.90
2023-03-17T03:02:17.538Z,63.08
2023-03-17T03:04:43.943Z,65.78
2023-03-17T03:07:10.284Z,62.28
2023-03-17T03:09:36.638Z,59.67
2023-03-17T03:12:03.338Z,59.95
2023-03-17T03:14:29.640Z,58.08
2023-03-17T03:16:56.138Z,58.35
2023-03-17T03:19:22.509Z,55.17
2023-03-17T03:21:49.355Z,54.33
2023-03-17T03:24:16.338Z,54.80
2023-03-17T03:26:43.125Z,54.47
2023-03-17T03:29:10.019Z,51.78
2023-03-17T03:31:36.407Z,52.65
2023-03-17T03:34:02.784Z,48.65
2023-03-17T03:36:29.300Z,51.35
2023-03-17T03:38:55.621Z,47.67
2023-03-17T03:41:22.007Z,45.05
2023-03-17T03:43:49.198Z,48.10
2023-03-17T03:46:15.808Z,44.25
2023-03-17T03:48:42.216Z,43.92
2023-03-17T03:51:09.213Z,46.70
2023-03-17T03:53:35.561Z,45.47
2023-03-17T03:56:01.904Z,43.40
2023-03-17T03:58:28.577Z,42.95
2023-03-17T04:00:54.947Z,44.33
2023-03-17T04:03:21.923Z,40.85
2023-03-17T04:05:48.295Z,43.08
2023-03-17T04:08:14.812Z,39.13
2023-03-17T04:10:41.232Z,40.05
2023-03-17T04:13:07.619Z,39.67
2023-03-17T04:15:33.919Z,41.72
2023-03-17T04:18:00.277Z,37.88
2023-03-17T04:20:27.165Z,36.17
2023-03-17T04:22:53.667Z,37.33
2023-03-17T04:25:20.203Z,36.65
2023-03-17T04:27:46.807Z,33.78
2023-03-17T04:30:13.593Z,35.90
2023-03-17T04:32:40.029Z,37.00
2023-03-17T04:35:06.432Z,34.70
2023-03-17T04:37:34.602Z,32.70
2023-03-17T04:40:01.060Z,34.28
2023-03-17T04:42:27.780Z,34.17
2023-03-17T04:44:54.354Z,34.13
2023-03-17T04:47:20.729Z,32.88
2023-03-17T04:49:47.101Z,32.20
2023-03-17T04:52:13.556Z,32.55
2023-03-17T04:54:39.951Z,32.38
2023-03-17T04:57:06.468Z,30.50
2023-03-17T04:59:33.315Z,30.98
2023-03-17T05:01:59.772Z,31.80
2023-03-17T05:04:31.551Z,30.60
2023-03-17T05:06:59.182Z,31.35
2023-03-17T05:09:25.570Z,28.17
2023-03-17T05:11:51.935Z,26.77
2023-03-17T05:14:18.498Z,29.60
2023-03-17T05:16:44.918Z,29.10
2023-03-17T05:19:11.234Z,28.83
2023-03-17T05:21:37.600Z,28.40
2023-03-17T05:24:03.986Z,26.77
2023-03-17T05:26:30.435Z,25.85
2023-03-17T05:28:57.138Z,28.00
2023-03-17T05:31:23.818Z,24.17
2023-03-17T05:33:50.135Z,28.33
2023-03-17T05:36:17.215Z,25.60
2023-03-17T05:38:43.619Z,26.75
2023-03-17T05:41:09.958Z,24.17
2023-03-17T05:43:36.292Z,25.55
2023-03-17T05:46:02.700Z,24.77
2023-03-17T05:48:29.573Z,26.88
2023-03-17T05:50:56.130Z,25.95
2023-03-17T05:53:22.859Z,24.80
2023-03-17T05:55:49.287Z,22.05
2023-03-17T05:58:15.799Z,21.15
2023-03-17T06:00:42.191Z,24.13
2023-03-17T06:03:08.669Z,22.58
2023-03-17T06:05:35.464Z,21.10
2023-03-17T06:08:02.052Z,20.73
2023-03-17T06:10:28.461Z,20.95
2023-03-17T06:12:55.035Z,22.33
2023-03-17T06:15:21.570Z,21.08
2023-03-17T06:17:47.976Z,17.77
2023-03-17T06:20:14.581Z,19.33
2023-03-17T06:22:51.650Z,19.48
2023-03-17T06:25:26.867Z,19.00
2023-03-17T06:27:53.398Z,17.27
2023-03-17T06:30:20.026Z,18.55
2023-03-17T06:32:46.464Z,18.58
2023-03-17T06:35:12.768Z,17.85
2023-03-17T06:37:39.163Z,16.73
2023-03-17T06:40:05.596Z,17.70
2023-03-17T06:42:31.931Z,16.13
2023-03-17T06:44:58.326Z,17.67
2023-03-17T06:47:26.037Z,16.10
2023-03-17T06:49:52.585Z,18.52
2023-03-17T06:52:19.551Z,16.73
2023-03-17T06:54:45.912Z,17.55
2023-03-17T06:57:12.282Z,17.15
2023-03-17T06:59:39.250Z,17.42
2023-03-17T07:02:05.763Z,14.90
2023-03-17T07:04:32.187Z,15.45
2023-03-17T07:06:58.548Z,15.52
2023-03-17T07:09:24.915Z,16.92
2023-03-17T07:11:51.874Z,16.77
2023-03-17T07:14:18.562Z,15.43
2023-03-17T07:16:45.282Z,16.25
2023-03-17T07:19:12.156Z,16.33
2023-03-17T07:21:38.852Z,14.13
2023-03-17T07:24:05.263Z,15.65
2023-03-17T07:26:31.657Z,16.40
2023-03-17T07:28:58.324Z,14.57
2023-03-17T07:31:25.064Z,13.70
2023-03-17T07:33:51.492Z,14.77
2023-03-17T07:36:18.289Z,14.05
2023-03-17T07:38:44.669Z,15.02
2023-03-17T07:41:11.150Z,15.05
2023-03-17T07:43:37.570Z,13.43
2023-03-17T07:46:06.315Z,14.18
2023-03-17T07:48:32.940Z,13.55
2023-03-17T07:50:59.846Z,15.73
2023-03-17T07:53:26.899Z,13.77
2023-03-17T07:55:53.199Z,13.48
2023-03-17T07:58:20.236Z,13.43
2023-03-17T08:00:47.030Z,13.98
2023-03-17T08:03:14.015Z,14.00
2023-03-17T08:05:40.623Z,14.20
2023-03-17T08:08:07.237Z,14.40
2023-03-17T08:10:34.081Z,12.80
2023-03-17T08:13:00.914Z,12.27
2023-03-17T08:15:28.287Z,15.10
2023-03-17T08:17:54.614Z,13.98
2023-03-17T08:20:21.324Z,14.27
2023-03-17T08:22:48.049Z,13.55
2023-03-17T08:25:14.408Z,12.63
2023-03-17T08:27:40.741Z,12.85
2023-03-17T08:30:07.265Z,12.10
2023-03-17T08:32:33.659Z,13.18
2023-03-17T08:35:00.108Z,13.18
2023-03-17T08:37:27.234Z,12.57
2023-03-17T08:39:53.641Z,13.20
2023-03-17T08:42:20.260Z,11.63
2023-03-17T08:44:47.025Z,12.63
2023-03-17T08:47:13.608Z,12.13
2023-03-17T08:49:39.893Z,12.88
2023-03-17T08:52:07.222Z,12.48
2023-03-17T08:54:33.525Z,12.70
2023-03-17T08:56:59.861Z,10.90
2023-03-17T08:59:26.677Z,11.93
2023-03-17T09:01:53.762Z,12.05
2023-03-17T09:04:20.710Z,12.38
2023-03-17T09:07:02.419Z,14.35
2023-03-17T09:09:30.022Z,12.55
2023-03-17T09:11:56.536Z,11.90
2023-03-17T09:14:23.658Z,11.45
2023-03-17T09:16:50.127Z,11.13
2023-03-17T09:19:17.215Z,14.30
2023-03-17T09:21:43.502Z,11.25
2023-03-17T09:24:09.859Z,12.13
2023-03-17T09:26:36.170Z,10.73
2023-03-17T09:29:04.677Z,11.10
2023-03-17T09:31:31.082Z,11.00
2023-03-17T09:33:57.487Z,12.60
2023-03-17T09:36:23.915Z,12.00
2023-03-17T09:38:50.284Z,11.48
2023-03-17T09:41:16.962Z,12.63
2023-03-17T09:43:43.296Z,11.18
2023-03-17T09:46:09.690Z,12.60
2023-03-17T09:48:36.041Z,11.88
2023-03-17T09:51:02.626Z,11.60
2023-03-17T09:53:29.607Z,12.00
2023-03-17T09:55:56.044Z,10.20
2023-03-17T09:58:22.822Z,12.15
2023-03-17T10:00:49.429Z,10.93
2023-03-17T10:03:15.786Z,11.27
2023-03-17T10:05:42.732Z,12.23
2023-03-17T10:08:26.929Z,12.38
2023-03-17T10:10:56.128Z,12.90
2023-03-17T10:13:22.439Z,11.10
2023-03-17T10:15:49.130Z,11.68
2023-03-17T10:18:15.722Z,10.18
2023-03-17T10:20:42.155Z,11.90
2023-03-17T10:23:08.845Z,11.40
2023-03-17T10:25:35.389Z,11.05
2023-03-17T10:28:01.754Z,9.57
2023-03-17T10:30:28.536Z,10.70
2023-03-17T10:32:55.016Z,10.13
2023-03-17T10:35:21.707Z,10.38
2023-03-17T10:37:48.073Z,10.05
2023-03-17T10:40:14.466Z,10.23
2023-03-17T10:42:41.149Z,10.25
2023-03-17T10:45:07.779Z,10.00
2023-03-17T10:47:34.419Z,9.70
2023-03-17T10:50:01.257Z,11.43
2023-03-17T10:52:27.920Z,11.48
2023-03-17T10:54:54.246Z,10.18
2023-03-17T10:57:20.769Z,9.10
2023-03-17T10:59:47.539Z,8.80
2023-03-17T11:02:13.883Z,10.43
2023-03-17T11:04:40.710Z,10.18
2023-03-17T11:07:07.438Z,9.18
2023-03-17T11:09:33.843Z,11.63
2023-03-17T11:12:00.216Z,10.18
2023-03-17T11:14:26.718Z,9.38
2023-03-17T11:16:53.681Z,9.40
2023-03-17T11:19:20.344Z,10.15
2023-03-17T11:21:47.392Z,10.15
2023-03-17T11:24:13.758Z,8.65
2023-03-17T11:26:40.291Z,9.35
2023-03-17T11:29:06.859Z,10.32
2023-03-17T11:31:33.292Z,7.75
2023-03-17T11:33:59.720Z,9.05
2023-03-17T11:36:26.077Z,8.48
2023-03-17T11:38:52.959Z,8.27
2023-03-17T11:41:19.928Z,10.35
2023-03-17T11:43:46.255Z,10.23
2023-03-17T11:46:12.810Z,10.23
2023-03-17T11:48:39.722Z,8.82
2023-03-17T11:51:06.144Z,9.98
2023-03-17T11:53:32.476Z,10.90
2023-03-17T11:55:58.859Z,7.68
2023-03-17T11:58:25.230Z,8.85
2023-03-17T12:00:52.182Z,10.40
2023-03-17T12:03:18.788Z,10.90
2023-03-17T12:05:45.147Z,9.30
2023-03-17T12:08:11.479Z,8.88
2023-03-17T12:10:38.438Z,8.50
2023-03-17T12:13:04.835Z,8.02
2023-03-17T12:15:31.874Z,8.98
2023-03-17T12:17:58.252Z,11.27
2023-03-17T12:20:25.463Z,7.57
2023-03-17T12:22:52.584Z,9.65
2023-03-17T12:25:19.128Z,8.02
2023-03-17T12:27:45.941Z,9.98
2023-03-17T12:30:12.262Z,7.97
2023-03-17T12:32:39.734Z,8.95
2023-03-17T12:35:06.222Z,9.27
2023-03-17T12:37:33.200Z,7.43
2023-03-17T12:39:59.564Z,10.40
2023-03-17T12:42:26.060Z,9.10
2023-03-17T12:44:52.794Z,8.70
2023-03-17T12:47:19.054Z,7.78
2023-03-17T12:49:45.429Z,10.70
2023-03-17T12:52:12.507Z,9.10
2023-03-17T12:54:39.342Z,8.90
2023-03-17T12:57:05.687Z,8.77
2023-03-17T12:59:32.077Z,9.52
2023-03-17T13:01:58.718Z,8.55
2023-03-17T13:04:27.126Z,7.75
2023-03-17T13:06:54.170Z,8.43
2023-03-17T13:09:20.865Z,8.27
2023-03-17T13:11:47.186Z,10.35
2023-03-17T13:14:13.476Z,8.50
2023-03-17T13:16:40.265Z,9.20
2023-03-17T13:19:07.265Z,9.55
2023-03-17T13:21:36.204Z,7.90
2023-03-17T13:24:02.678Z,7.10
2023-03-17T13:26:29.228Z,9.52
2023-03-17T13:28:55.789Z,7.63
2023-03-17T13:31:22.973Z,7.72
2023-03-17T13:33:49.361Z,7.03
2023-03-17T13:36:15.959Z,7.05
2023-03-17T13:38:42.430Z,8.40
2023-03-17T13:41:08.781Z,7.32
2023-03-17T13:43:35.090Z,7.55
2023-03-17T13:46:01.367Z,8.15
2023-03-17T13:48:28.068Z,7.00
2023-03-17T13:50:54.447Z,8.52
2023-03-17T13:53:21.123Z,7.93
2023-03-17T13:55:47.645Z,6.43
2023-03-17T13:58:14.032Z,8.23
2023-03-17T14:00:40.939Z,5.90
2023-03-17T14:03:07.887Z,6.57
2023-03-17T14:05:34.440Z,6.20
2023-03-17T14:08:01.490Z,8.02
2023-03-17T14:10:27.825Z,6.65
2023-03-17T14:12:54.828Z,8.07
2023-03-17T14:15:21.345Z,7.45
2023-03-17T14:17:48.007Z,8.95
2023-03-17T14:20:14.774Z,7.43
2023-03-17T14:22:43.805Z,7.72
2023-03-17T14:25:11.563Z,8.07
2023-03-17T14:27:38.438Z,6.45
2023-03-17T14:30:05.182Z,7.28
2023-03-17T14:32:31.502Z,6.30
2023-03-17T14:34:58.378Z,6.75
2023-03-17T14:37:25.140Z,6.72
2023-03-17T14:39:51.498Z,6.28
2023-03-17T14:42:17.815Z,7.50
2023-03-17T14:44:44.707Z,6.75
2023-03-17T14:47:12.214Z,8.95
2023-03-17T14:49:38.582Z,9.73
2023-03-17T14:52:05.033Z,6.97
2023-03-17T14:54:31.700Z,6.53
2023-03-17T14:56:58.132Z,8.05
2023-03-17T14:59:24.509Z,8.60
2023-03-17T15:01:50.915Z,8.43
2023-03-17T15:04:17.523Z,7.63
2023-03-17T15:06:44.314Z,8.88
2023-03-17T15:09:10.928Z,6.68
2023-03-17T15:11:37.326Z,7.32
2023-03-17T15:14:03.792Z,5.90
2023-03-17T15:16:30.576Z,8.40
2023-03-17T15:18:57.044Z,8.75
2023-03-17T15:21:23.603Z,7.35
2023-03-17T15:23:49.948Z,6.78
2023-03-17T15:26:16.264Z,7.93
2023-03-17T15:28:43.056Z,7.35
2023-03-17T15:31:09.463Z,9.15
2023-03-17T15:33:36.673Z,8.98
2023-03-17T15:36:03.075Z,6.80
2023-03-17T15:38:29.534Z,8.07
2023-03-17T15:40:55.950Z,7.88
2023-03-17T15:43:22.461Z,7.28
2023-03-17T15:45:49.015Z,7.63
2023-03-17T15:48:15.701Z,7.03
2023-03-17T15:50:42.233Z,7.05
2023-03-17T15:53:08.617Z,7.70
2023-03-17T15:55:35.587Z,7.32
2023-03-17T15:58:02.170Z,7.25
2023-03-17T16:00:28.619Z,8.02
2023-03-17T16:02:54.952Z,7.13
2023-03-17T16:05:21.434Z,6.72
2023-03-17T16:07:47.792Z,8.27
2023-03-17T16:10:14.736Z,7.72
2023-03-17T16:12:41.025Z,6.35
2023-03-17T16:15:21.860Z,6.78
2023-03-17T16:17:49.493Z,6.70
2023-03-17T16:20:15.848Z,6.40
2023-03-17T16:22:42.249Z,7.93
2023-03-17T16:25:08.520Z,7.30
2023-03-17T16:27:34.899Z,6.13
2023-03-17T16:30:01.213Z,7.13
2023-03-17T16:32:28.241Z,7.07
2023-03-17T16:34:55.061Z,8.05
2023-03-17T16:37:21.622Z,7.20
2023-03-17T16:39:48.035Z,7.60
2023-03-17T16:42:14.661Z,7.35
2023-03-17T16:44:42.146Z,6.35
2023-03-17T16:47:09.007Z,7.55
2023-03-17T16:49:35.352Z,6.88
2023-03-17T16:52:01.703Z,7.13
2023-03-17T16:54:28.033Z,6.85
2023-03-17T16:56:54.585Z,7.07
2023-03-17T16:59:21.102Z,6.70
2023-03-17T17:01:47.741Z,7.75
2023-03-17T17:04:14.115Z,6.60
2023-03-17T17:06:41.169Z,5.57
2023-03-17T17:09:07.781Z,6.65
2023-03-17T17:11:34.473Z,6.63
2023-03-17T17:14:00.853Z,6.53
2023-03-17T17:16:27.590Z,7.47
2023-03-17T17:18:54.388Z,6.20
2023-03-17T17:21:20.729Z,7.25
2023-03-17T17:23:47.076Z,7.32
2023-03-17T17:26:13.512Z,7.00
2023-03-17T17:28:40.335Z,5.95
2023-03-17T17:31:07.535Z,6.63
2023-03-17T17:33:33.932Z,6.53
2023-03-17T17:36:00.383Z,6.43
2023-03-17T17:38:26.788Z,6.55
2023-03-17T17:40:53.127Z,8.07
2023-03-17T17:43:19.641Z,6.75
2023-03-17T17:45:46.011Z,6.80
2023-03-17T17:48:12.275Z,7.43
2023-03-17T17:50:38.628Z,7.20
2023-03-17T17:53:05.678Z,6.75
2023-03-17T17:55:32.075Z,6.95
2023-03-17T17:57:58.848Z,6.25
2023-03-17T18:00:25.152Z,6.43
2023-03-17T18:02:51.654Z,6.80
2023-03-17T18:05:18.016Z,6.82
2023-03-17T18:07:44.444Z,6.10
2023-03-17T18:10:11.344Z,6.47
2023-03-17T18:12:38.048Z,6.03
2023-03-17T18:15:04.568Z,6.30
2023-03-17T18:17:32.583Z,10.63
2023-03-17T18:19:59.337Z,6.47
2023-03-17T18:22:26.177Z,7.32
2023-03-17T18:24:52.551Z,7.00
2023-03-17T18:27:19.124Z,7.75
2023-03-17T18:29:45.672Z,6.57
2023-03-17T18:32:12.879Z,6.93
2023-03-17T18:34:40.024Z,6.40
2023-03-17T18:37:07.144Z,6.07
2023-03-17T18:39:33.439Z,6.28
2023-03-17T18:41:59.823Z,7.18
2023-03-17T18:44:26.171Z,6.15
2023-03-17T18:46:52.657Z,8.18
2023-03-17T18:49:18.971Z,6.32
2023-03-17T18:51:45.581Z,7.25
2023-03-17T18:54:12.100Z,6.25
2023-03-17T18:56:38.693Z,6.13
2023-03-17T18:59:05.159Z,7.05
2023-03-17T19:01:31.630Z,6.25
2023-03-17T19:03:57.981Z,6.32
2023-03-17T19:06:24.804Z,7.15
2023-03-17T19:08:51.316Z,5.97
2023-03-17T19:11:17.937Z,6.55
2023-03-17T19:13:44.375Z,5.85
2023-03-17T19:16:10.939Z,7.13
2023-03-17T19:18:37.500Z,5.65
2023-03-17T19:21:04.120Z,6.35
2023-03-17T19:23:30.566Z,6.50
2023-03-17T19:25:57.491Z,7.28
2023-03-17T19:28:23.848Z,6.53
2023-03-17T19:30:50.574Z,6.88
2023-03-17T19:33:17.163Z,6.43
2023-03-17T19:35:43.954Z,7.10
2023-03-17T19:38:10.371Z,7.22
2023-03-17T19:40:36.965Z,6.93
2023-03-17T19:43:04.298Z,6.95
2023-03-17T19:45:30.755Z,6.28
2023-03-17T19:47:57.163Z,6.68
2023-03-17T19:50:23.562Z,7.53
2023-03-17T19:52:50.121Z,6.63
2023-03-17T19:55:16.534Z,7.07
2023-03-17T19:57:42.965Z,7.80
2023-03-17T20:00:09.263Z,7.15
2023-03-17T20:02:35.754Z,6.70
2023-03-17T20:05:02.440Z,7.47
2023-03-17T20:07:28.993Z,6.32
2023-03-17T20:09:55.391Z,7.45
2023-03-17T20:12:21.746Z,7.05
2023-03-17T20:14:49.135Z,7.22
2023-03-17T20:17:15.529Z,6.97
2023-03-17T20:19:42.166Z,7.70
2023-03-17T20:22:08.947Z,7.97
2023-03-17T20:24:35.295Z,7.78
2023-03-17T20:27:01.678Z,7.00
2023-03-17T20:29:28.108Z,7.38
2023-03-17T20:31:54.684Z,7.18
2023-03-17T20:34:20.986Z,7.15
2023-03-17T20:36:47.819Z,6.30
2023-03-17T20:39:14.149Z,8.30
2023-03-17T20:41:40.601Z,6.93
2023-03-17T20:44:07.536Z,7.72
2023-03-17T20:46:34.358Z,10.23
2023-03-17T20:49:00.788Z,6.97
2023-03-17T20:51:27.091Z,7.55
2023-03-17T20:53:53.504Z,8.20
2023-03-17T20:56:19.939Z,7.78
2023-03-17T20:58:46.323Z,8.88
2023-03-17T21:01:13.125Z,7.13
2023-03-17T21:03:39.528Z,7.88
2023-03-17T21:06:05.934Z,7.10
2023-03-17T21:08:32.290Z,6.68
2023-03-17T21:10:59.305Z,6.97
2023-03-17T21:13:26.080Z,6.65
2023-03-17T21:15:53.199Z,8.02
2023-03-17T21:18:20.247Z,7.20
2023-03-17T21:20:46.648Z,7.05
2023-03-17T21:23:13.373Z,8.00
2023-03-17T21:25:39.910Z,7.05
2023-03-17T21:28:06.951Z,7.97
2023-03-17T21:30:33.500Z,8.30
2023-03-17T21:33:00.103Z,7.63
2023-03-17T21:35:27.045Z,8.18
2023-03-17T21:37:53.576Z,6.88
2023-03-17T21:40:19.937Z,7.97
2023-03-17T21:42:46.289Z,6.80
2023-03-17T21:45:13.183Z,7.25
2023-03-17T21:47:39.927Z,7.40
2023-03-17T21:50:06.498Z,8.40
2023-03-17T21:52:33.098Z,7.00
2023-03-17T21:54:59.889Z,7.63
2023-03-17T21:57:26.829Z,8.07
2023-03-17T21:59:53.764Z,6.55
2023-03-17T22:02:20.105Z,9.52
2023-03-17T22:04:46.478Z,7.22
2023-03-17T22:07:12.870Z,7.75
2023-03-17T22:09:39.551Z,7.88
2023-03-17T22:12:06.439Z,7.47
2023-03-17T22:14:32.761Z,8.65
2023-03-17T22:16:59.567Z,7.72
2023-03-17T22:19:26.000Z,7.85
2023-03-17T22:21:52.350Z,7.95
2023-03-17T22:24:18.648Z,6.88
2023-03-17T22:26:45.478Z,7.22
2023-03-17T22:29:11.935Z,8.30
2023-03-17T22:31:38.775Z,7.95
2023-03-17T22:34:05.575Z,7.97
2023-03-17T22:36:32.044Z,8.15
2023-03-17T22:38:58.520Z,7.82
2023-03-17T22:41:24.961Z,7.75
2023-03-17T22:43:51.382Z,6.95
2023-03-17T22:46:17.886Z,9.57
2023-03-17T22:48:44.822Z,7.90
2023-03-17T22:51:11.614Z,7.25
2023-03-17T22:53:38.255Z,7.68
2023-03-17T22:56:04.537Z,7.05
2023-03-17T22:58:31.363Z,7.18
2023-03-17T23:00:57.786Z,7.50
2023-03-17T23:03:24.994Z,8.10
2023-03-17T23:05:51.737Z,9.73
2023-03-17T23:08:18.158Z,7.30
2023-03-17T23:10:44.964Z,7.05
2023-03-17T23:13:11.573Z,6.57
2023-03-17T23:15:37.919Z,6.70
2023-03-17T23:18:04.547Z,8.63
2023-03-17T23:20:31.863Z,7.30
2023-03-17T23:22:58.740Z,7.65
2023-03-17T23:25:25.122Z,8.80
2023-03-17T23:27:51.502Z,8.68
2023-03-17T23:30:18.190Z,6.32
2023-03-17T23:32:44.796Z,9.82
2023-03-17T23:35:11.356Z,7.03
2023-03-17T23:37:37.808Z,8.43
2023-03-17T23:40:04.317Z,7.72
2023-03-17T23:42:31.423Z,7.80
2023-03-17T23:44:57.806Z,8.27
2023-03-17T23:47:24.184Z,7.97
2023-03-17T23:49:50.549Z,7.68
2023-03-17T23:52:16.894Z,6.38
2023-03-17T23:54:43.202Z,7.28
2023-03-17T23:57:09.578Z,9.05
2023-03-17T23:59:35.956Z,7.07
